PWSweather.com
Personal Weather Stations
Station Observations
KOHAVON11
Long Road Station, Avon, OH 44011

Long Road StationAvon, OH 44011

Lat: 41.437, Lon: -82.0477

Elevation: 686

Station Type: Davis Vantage Pro2

http://www.avon-weather.com

High Low Average
Temperature 75.4°F24.1°C 37.8°F3.2°C 57.3°F14.1°C
Dew Point 47.3°F8.5°C 27.7°F-2.4°C 37.9°F3.3°C
Winds 16.0 mph 25.7 kmh Calm Calm 3.0 mph SE4.8 kmh SE
Wind Gusts 20.0 mph32.2 kmh -- 9.0 mph14.5 kmh
Humidity 70% 32% 51%
Pressure 30.26 in1024.7 mb 30.12 in1020.0 mb -
Precipitation 0.00 in0.0 mm - -
Hour Temp Dew Point Humidity Winds Wind Gusts Pressure Precip Precip Rate Daily Precip Total
12:04 AM 44.5°F6.9°C 29.0°F-1.7°C 55% 4.0 mph ENE6.4 kmh ENE 9.0 mph14.5 kmh 30.27 in1025.1 mb 0.00 in0.0 mm 0.00 in0.0 mm 0.00 in0.0 mm
12:09 AM 44.6°F7.0°C 29.6°F-1.3°C 56% 1.0 mph ENE1.6 kmh ENE 9.0 mph14.5 kmh 30.27 in1025.1 mb 0.00 in0.0 mm 0.00 in0.0 mm 0.00 in0.0 mm
12:14 AM 44.6°F7.0°C 29.6°F-1.3°C 56% Calm Calm 9.0 mph14.5 kmh 30.26 in1024.7 mb 0.00 in0.0 mm 0.00 in0.0 mm 0.00 in0.0 mm
12:19 AM 44.5°F6.9°C 29.5°F-1.4°C 56% Calm Calm 4.0 mph6.4 kmh 30.26 in1024.7 mb 0.00 in0.0 mm 0.00 in0.0 mm 0.00 in0.0 mm
12:24 AM 44.4°F6.9°C 29.4°F-1.4°C 56% Calm Calm -- 30.26 in1024.7 mb 0.00 in0.0 mm 0.00 in0.0 mm 0.00 in0.0 mm
12:29 AM 44.3°F6.8°C 29.3°F-1.5°C 56% Calm Calm 1.0 mph1.6 kmh 30.26 in1024.7 mb 0.00 in0.0 mm 0.00 in0.0 mm 0.00 in0.0 mm
12:34 AM 44.1°F6.7°C 29.5°F-1.4°C 57% Calm Calm 2.0 mph3.2 kmh 30.26 in1024.7 mb 0.00 in0.0 mm 0.00 in0.0 mm 0.00 in0.0 mm
12:39 AM 44.0°F6.7°C 29.0°F-1.7°C 56% Calm Calm 5.0 mph8.0 kmh 30.26 in1024.7 mb 0.00 in0.0 mm 0.00 in0.0 mm 0.00 in0.0 mm
12:44 AM 43.7°F6.5°C 28.7°F-1.8°C 56% Calm Calm 1.0 mph1.6 kmh 30.26 in1024.7 mb 0.00 in0.0 mm 0.00 in0.0 mm 0.00 in0.0 mm
12:49 AM 43.4°F6.3°C 28.9°F-1.7°C 57% 1.0 mph E1.6 kmh E 2.0 mph3.2 kmh 30.26 in1024.7 mb 0.00 in0.0 mm 0.00 in0.0 mm 0.00 in0.0 mm
12:54 AM 43.2°F6.2°C 28.7°F-1.8°C 57% Calm Calm 2.0 mph3.2 kmh 30.26 in1024.7 mb 0.00 in0.0 mm 0.00 in0.0 mm 0.00 in0.0 mm
12:59 AM 42.9°F6.1°C 28.9°F-1.7°C 58% Calm Calm 5.0 mph8.0 kmh 30.26 in1024.7 mb 0.00 in0.0 mm 0.00 in0.0 mm 0.00 in0.0 mm
01:04 AM 42.7°F5.9°C 28.7°F-1.8°C 58% 1.0 mph E1.6 kmh E 1.0 mph1.6 kmh 30.26 in1024.7 mb 0.00 in0.0 mm 0.00 in0.0 mm 0.00 in0.0 mm
01:09 AM 42.5°F5.8°C 28.9°F-1.7°C 59% Calm Calm 1.0 mph1.6 kmh 30.26 in1024.7 mb 0.00 in0.0 mm 0.00 in0.0 mm 0.00 in0.0 mm
01:14 AM 42.3°F5.7°C 28.7°F-1.8°C 59% Calm Calm -- 30.26 in1024.7 mb 0.00 in0.0 mm 0.00 in0.0 mm 0.00 in0.0 mm
01:19 AM 42.1°F5.6°C 28.5°F-1.9°C 59% Calm Calm 2.0 mph3.2 kmh 30.26 in1024.7 mb 0.00 in0.0 mm 0.00 in0.0 mm 0.00 in0.0 mm
01:24 AM 42.0°F5.6°C 28.4°F-2.0°C 59% Calm Calm -- 30.25 in1024.4 mb 0.00 in0.0 mm 0.00 in0.0 mm 0.00 in0.0 mm
01:29 AM 41.9°F5.5°C 28.4°F-2.0°C 59% Calm Calm -- 30.25 in1024.4 mb 0.00 in0.0 mm 0.00 in0.0 mm 0.00 in0.0 mm
01:34 AM 41.8°F5.4°C 28.7°F-1.8°C 60% Calm Calm -- 30.25 in1024.4 mb 0.00 in0.0 mm 0.00 in0.0 mm 0.00 in0.0 mm
01:39 AM 41.6°F5.3°C 28.5°F-1.9°C 60% Calm Calm -- 30.25 in1024.4 mb 0.00 in0.0 mm 0.00 in0.0 mm 0.00 in0.0 mm
01:44 AM 41.4°F5.2°C 28.7°F-1.8°C 61% Calm Calm -- 30.25 in1024.4 mb 0.00 in0.0 mm 0.00 in0.0 mm 0.00 in0.0 mm
01:49 AM 41.2°F5.1°C 28.5°F-1.9°C 61% Calm Calm -- 30.25 in1024.4 mb 0.00 in0.0 mm 0.00 in0.0 mm 0.00 in0.0 mm
01:54 AM 41.0°F5.0°C 28.3°F-2.1°C 61% Calm Calm -- 30.25 in1024.4 mb 0.00 in0.0 mm 0.00 in0.0 mm 0.00 in0.0 mm
01:59 AM 40.9°F4.9°C 28.3°F-2.1°C 61% Calm Calm -- 30.25 in1024.4 mb 0.00 in0.0 mm 0.00 in0.0 mm 0.00 in0.0 mm
02:04 AM 40.8°F4.9°C 28.6°F-1.9°C 62% Calm Calm 1.0 mph1.6 kmh 30.25 in1024.4 mb 0.00 in0.0 mm 0.00 in0.0 mm 0.00 in0.0 mm
02:09 AM 40.7°F4.8°C 28.5°F-1.9°C 62% Calm Calm -- 30.24 in1024.0 mb 0.00 in0.0 mm 0.00 in0.0 mm 0.00 in0.0 mm
02:14 AM 40.5°F4.7°C 28.3°F-2.1°C 62% Calm Calm -- 30.24 in1024.0 mb 0.00 in0.0 mm 0.00 in0.0 mm 0.00 in0.0 mm
02:19 AM 40.4°F4.7°C 28.2°F-2.1°C 62% Calm Calm -- 30.24 in1024.0 mb 0.00 in0.0 mm 0.00 in0.0 mm 0.00 in0.0 mm
02:24 AM 40.2°F4.6°C 28.4°F-2.0°C 63% 2.0 mph ENE3.2 kmh ENE 2.0 mph3.2 kmh 30.24 in1024.0 mb 0.00 in0.0 mm 0.00 in0.0 mm 0.00 in0.0 mm
02:29 AM 40.0°F4.4°C 28.2°F-2.1°C 63% Calm Calm 2.0 mph3.2 kmh 30.24 in1024.0 mb 0.00 in0.0 mm 0.00 in0.0 mm 0.00 in0.0 mm
02:34 AM 40.0°F4.4°C 28.2°F-2.1°C 63% Calm Calm 2.0 mph3.2 kmh 30.24 in1024.0 mb 0.00 in0.0 mm 0.00 in0.0 mm 0.00 in0.0 mm
02:39 AM 39.9°F4.4°C 28.1°F-2.2°C 63% Calm Calm 2.0 mph3.2 kmh 30.24 in1024.0 mb 0.00 in0.0 mm 0.00 in0.0 mm 0.00 in0.0 mm
02:44 AM 40.0°F4.4°C 28.2°F-2.1°C 63% Calm Calm 2.0 mph3.2 kmh 30.24 in1024.0 mb 0.00 in0.0 mm 0.00 in0.0 mm 0.00 in0.0 mm
02:49 AM 40.0°F4.4°C 28.2°F-2.1°C 63% Calm Calm 3.0 mph4.8 kmh 30.24 in1024.0 mb 0.00 in0.0 mm 0.00 in0.0 mm 0.00 in0.0 mm
02:54 AM 40.1°F4.5°C 28.3°F-2.1°C 63% 1.0 mph E1.6 kmh E 1.0 mph1.6 kmh 30.24 in1024.0 mb 0.00 in0.0 mm 0.00 in0.0 mm 0.00 in0.0 mm
02:59 AM 40.2°F4.6°C 28.0°F-2.2°C 62% Calm Calm -- 30.24 in1024.0 mb 0.00 in0.0 mm 0.00 in0.0 mm 0.00 in0.0 mm
03:04 AM 40.3°F4.6°C 28.1°F-2.2°C 62% Calm Calm -- 30.24 in1024.0 mb 0.00 in0.0 mm 0.00 in0.0 mm 0.00 in0.0 mm
03:09 AM 40.3°F4.6°C 28.1°F-2.2°C 62% Calm Calm -- 30.24 in1024.0 mb 0.00 in0.0 mm 0.00 in0.0 mm 0.00 in0.0 mm
03:14 AM 40.3°F4.6°C 28.1°F-2.2°C 62% Calm Calm -- 30.24 in1024.0 mb 0.00 in0.0 mm 0.00 in0.0 mm 0.00 in0.0 mm
03:19 AM 40.2°F4.6°C 28.0°F-2.2°C 62% Calm Calm 1.0 mph1.6 kmh 30.24 in1024.0 mb 0.00 in0.0 mm 0.00 in0.0 mm 0.00 in0.0 mm
03:24 AM 40.1°F4.5°C 27.9°F-2.3°C 62% Calm Calm 1.0 mph1.6 kmh 30.23 in1023.7 mb 0.00 in0.0 mm 0.00 in0.0 mm 0.00 in0.0 mm
03:29 AM 39.8°F4.3°C 28.0°F-2.2°C 63% Calm Calm -- 30.23 in1023.7 mb 0.00 in0.0 mm 0.00 in0.0 mm 0.00 in0.0 mm
03:34 AM 39.4°F4.1°C 28.0°F-2.2°C 64% Calm Calm -- 30.24 in1024.0 mb 0.00 in0.0 mm 0.00 in0.0 mm 0.00 in0.0 mm
03:39 AM 39.1°F3.9°C 28.2°F-2.1°C 65% Calm Calm 1.0 mph1.6 kmh 30.23 in1023.7 mb 0.00 in0.0 mm 0.00 in0.0 mm 0.00 in0.0 mm
03:44 AM 38.9°F3.8°C 28.0°F-2.2°C 65% Calm Calm 2.0 mph3.2 kmh 30.23 in1023.7 mb 0.00 in0.0 mm 0.00 in0.0 mm 0.00 in0.0 mm
03:49 AM 38.6°F3.7°C 28.1°F-2.2°C 66% Calm Calm 1.0 mph1.6 kmh 30.23 in1023.7 mb 0.00 in0.0 mm 0.00 in0.0 mm 0.00 in0.0 mm
03:54 AM 38.4°F3.6°C 27.9°F-2.3°C 66% Calm Calm -- 30.23 in1023.7 mb 0.00 in0.0 mm 0.00 in0.0 mm 0.00 in0.0 mm
03:59 AM 38.2°F3.4°C 27.7°F-2.4°C 66% Calm Calm -- 30.23 in1023.7 mb 0.00 in0.0 mm 0.00 in0.0 mm 0.00 in0.0 mm
04:04 AM 38.1°F3.4°C 28.0°F-2.2°C 67% Calm Calm -- 30.23 in1023.7 mb 0.00 in0.0 mm 0.00 in0.0 mm 0.00 in0.0 mm
04:09 AM 37.9°F3.3°C 27.8°F-2.3°C 67% 1.0 mph ENE1.6 kmh ENE 2.0 mph3.2 kmh 30.23 in1023.7 mb 0.00 in0.0 mm 0.00 in0.0 mm 0.00 in0.0 mm
04:14 AM 37.8°F3.2°C 28.0°F-2.2°C 68% 1.0 mph E1.6 kmh E 2.0 mph3.2 kmh 30.23 in1023.7 mb 0.00 in0.0 mm 0.00 in0.0 mm 0.00 in0.0 mm
04:19 AM 37.8°F3.2°C 28.0°F-2.2°C 68% 1.0 mph E1.6 kmh E 3.0 mph4.8 kmh 30.23 in1023.7 mb 0.00 in0.0 mm 0.00 in0.0 mm 0.00 in0.0 mm
04:24 AM 38.0°F3.3°C 27.9°F-2.3°C 67% Calm Calm 3.0 mph4.8 kmh 30.23 in1023.7 mb 0.00 in0.0 mm 0.00 in0.0 mm 0.00 in0.0 mm
04:29 AM 38.2°F3.4°C 28.1°F-2.2°C 67% Calm Calm 1.0 mph1.6 kmh 30.23 in1023.7 mb 0.00 in0.0 mm 0.00 in0.0 mm 0.00 in0.0 mm
04:34 AM 38.4°F3.6°C 28.2°F-2.1°C 67% Calm Calm 1.0 mph1.6 kmh 30.23 in1023.7 mb 0.00 in0.0 mm 0.00 in0.0 mm 0.00 in0.0 mm
04:39 AM 38.5°F3.6°C 28.3°F-2.1°C 67% Calm Calm 1.0 mph1.6 kmh 30.23 in1023.7 mb 0.00 in0.0 mm 0.00 in0.0 mm 0.00 in0.0 mm
04:44 AM 38.5°F3.6°C 28.3°F-2.1°C 67% Calm Calm -- 30.23 in1023.7 mb 0.00 in0.0 mm 0.00 in0.0 mm 0.00 in0.0 mm
04:49 AM 38.6°F3.7°C 28.4°F-2.0°C 67% Calm Calm 3.0 mph4.8 kmh 30.23 in1023.7 mb 0.00 in0.0 mm 0.00 in0.0 mm 0.00 in0.0 mm
04:54 AM 38.5°F3.6°C 28.3°F-2.1°C 67% 1.0 mph E1.6 kmh E 5.0 mph8.0 kmh 30.23 in1023.7 mb 0.00 in0.0 mm 0.00 in0.0 mm 0.00 in0.0 mm
04:59 AM 38.5°F3.6°C 28.3°F-2.1°C 67% Calm Calm 5.0 mph8.0 kmh 30.23 in1023.7 mb 0.00 in0.0 mm 0.00 in0.0 mm 0.00 in0.0 mm
05:04 AM 38.4°F3.6°C 28.6°F-1.9°C 68% Calm Calm 5.0 mph8.0 kmh 30.23 in1023.7 mb 0.00 in0.0 mm 0.00 in0.0 mm 0.00 in0.0 mm
05:09 AM 38.4°F3.6°C 28.6°F-1.9°C 68% Calm Calm -- 30.23 in1023.7 mb 0.00 in0.0 mm 0.00 in0.0 mm 0.00 in0.0 mm
05:14 AM 38.5°F3.6°C 28.7°F-1.8°C 68% Calm Calm -- 30.22 in1023.4 mb 0.00 in0.0 mm 0.00 in0.0 mm 0.00 in0.0 mm
05:19 AM 38.5°F3.6°C 29.1°F-1.6°C 69% Calm Calm -- 30.23 in1023.7 mb 0.00 in0.0 mm 0.00 in0.0 mm 0.00 in0.0 mm
05:24 AM 38.6°F3.7°C 29.5°F-1.4°C 70% Calm Calm 4.0 mph6.4 kmh 30.23 in1023.7 mb 0.00 in0.0 mm 0.00 in0.0 mm 0.00 in0.0 mm
05:29 AM 38.6°F3.7°C 29.5°F-1.4°C 70% Calm Calm -- 30.23 in1023.7 mb 0.00 in0.0 mm 0.00 in0.0 mm 0.00 in0.0 mm
05:34 AM 38.8°F3.8°C 29.4°F-1.4°C 69% Calm Calm -- 30.23 in1023.7 mb 0.00 in0.0 mm 0.00 in0.0 mm 0.00 in0.0 mm
05:39 AM 39.0°F3.9°C 29.6°F-1.3°C 69% Calm Calm 3.0 mph4.8 kmh 30.22 in1023.4 mb 0.00 in0.0 mm 0.00 in0.0 mm 0.00 in0.0 mm
05:44 AM 39.2°F4.0°C 29.8°F-1.2°C 69% 2.0 mph ESE3.2 kmh ESE 4.0 mph6.4 kmh 30.23 in1023.7 mb 0.00 in0.0 mm 0.00 in0.0 mm 0.00 in0.0 mm
05:49 AM 39.5°F4.2°C 30.0°F-1.1°C 69% 5.0 mph SE8.0 kmh SE 5.0 mph8.0 kmh 30.23 in1023.7 mb 0.00 in0.0 mm 0.00 in0.0 mm 0.00 in0.0 mm
05:54 AM 39.9°F4.4°C 30.4°F-0.9°C 69% Calm Calm 5.0 mph8.0 kmh 30.23 in1023.7 mb 0.00 in0.0 mm 0.00 in0.0 mm 0.00 in0.0 mm
05:59 AM 40.4°F4.7°C 30.9°F-0.6°C 69% Calm Calm 5.0 mph8.0 kmh 30.23 in1023.7 mb 0.00 in0.0 mm 0.00 in0.0 mm 0.00 in0.0 mm
06:04 AM 41.2°F5.1°C 32.0°F0.0°C 70% 2.0 mph ESE3.2 kmh ESE 5.0 mph8.0 kmh 30.23 in1023.7 mb 0.00 in0.0 mm 0.00 in0.0 mm 0.00 in0.0 mm
06:09 AM 42.3°F5.7°C 33.1°F0.6°C 70% 2.0 mph ESE3.2 kmh ESE 5.0 mph8.0 kmh 30.23 in1023.7 mb 0.00 in0.0 mm 0.00 in0.0 mm 0.00 in0.0 mm
06:14 AM 43.3°F6.3°C 33.7°F0.9°C 69% 2.0 mph SE3.2 kmh SE 5.0 mph8.0 kmh 30.23 in1023.7 mb 0.00 in0.0 mm 0.00 in0.0 mm 0.00 in0.0 mm
06:19 AM 44.2°F6.8°C 34.1°F1.2°C 68% 6.0 mph SE9.7 kmh SE 8.0 mph12.9 kmh 30.23 in1023.7 mb 0.00 in0.0 mm 0.00 in0.0 mm 0.00 in0.0 mm
06:24 AM 45.0°F7.2°C 34.1°F1.2°C 66% 4.0 mph SE6.4 kmh SE 8.0 mph12.9 kmh 30.23 in1023.7 mb 0.00 in0.0 mm 0.00 in0.0 mm 0.00 in0.0 mm
06:29 AM 45.9°F7.7°C 34.6°F1.4°C 65% 2.0 mph SE3.2 kmh SE 8.0 mph12.9 kmh 30.24 in1024.0 mb 0.00 in0.0 mm 0.00 in0.0 mm 0.00 in0.0 mm
06:34 AM 46.5°F8.1°C 34.8°F1.6°C 64% 3.0 mph ESE4.8 kmh ESE 8.0 mph12.9 kmh 30.24 in1024.0 mb 0.00 in0.0 mm 0.00 in0.0 mm 0.00 in0.0 mm
06:39 AM 47.0°F8.3°C 35.2°F1.8°C 64% 7.0 mph ESE11.3 kmh ESE 9.0 mph14.5 kmh 30.24 in1024.0 mb 0.00 in0.0 mm 0.00 in0.0 mm 0.00 in0.0 mm
06:44 AM 47.4°F8.6°C 35.2°F1.8°C 63% 5.0 mph SE8.0 kmh SE 12.0 mph19.3 kmh 30.24 in1024.0 mb 0.00 in0.0 mm 0.00 in0.0 mm 0.00 in0.0 mm
06:49 AM 47.8°F8.8°C 35.6°F2.0°C 63% 3.0 mph SE4.8 kmh SE 12.0 mph19.3 kmh 30.24 in1024.0 mb 0.00 in0.0 mm 0.00 in0.0 mm 0.00 in0.0 mm
06:54 AM 48.1°F8.9°C 35.4°F1.9°C 62% 4.0 mph ESE6.4 kmh ESE 12.0 mph19.3 kmh 30.24 in1024.0 mb 0.00 in0.0 mm 0.00 in0.0 mm 0.00 in0.0 mm
06:59 AM 48.5°F9.2°C 35.8°F2.1°C 62% 5.0 mph SE8.0 kmh SE 12.0 mph19.3 kmh 30.24 in1024.0 mb 0.00 in0.0 mm 0.00 in0.0 mm 0.00 in0.0 mm
07:04 AM 48.8°F9.3°C 36.1°F2.3°C 62% 3.0 mph E4.8 kmh E 9.0 mph14.5 kmh 30.24 in1024.0 mb 0.00 in0.0 mm 0.00 in0.0 mm 0.00 in0.0 mm
07:09 AM 49.2°F9.6°C 36.1°F2.3°C 61% 5.0 mph ESE8.0 kmh ESE 9.0 mph14.5 kmh 30.24 in1024.0 mb 0.00 in0.0 mm 0.00 in0.0 mm 0.00 in0.0 mm
07:14 AM 49.6°F9.8°C 36.4°F2.4°C 61% 4.0 mph SE6.4 kmh SE 11.0 mph17.7 kmh 30.24 in1024.0 mb 0.00 in0.0 mm 0.00 in0.0 mm 0.00 in0.0 mm
07:19 AM 50.0°F10.0°C 36.8°F2.7°C 61% 9.0 mph ESE14.5 kmh ESE 11.0 mph17.7 kmh 30.24 in1024.0 mb 0.00 in0.0 mm 0.00 in0.0 mm 0.00 in0.0 mm
07:24 AM 50.4°F10.2°C 37.2°F2.9°C 61% 11.0 mph SE17.7 kmh SE 11.0 mph17.7 kmh 30.25 in1024.4 mb 0.00 in0.0 mm 0.00 in0.0 mm 0.00 in0.0 mm
07:29 AM 50.8°F10.4°C 37.1°F2.8°C 60% 2.0 mph SE3.2 kmh SE 11.0 mph17.7 kmh 30.24 in1024.0 mb 0.00 in0.0 mm 0.00 in0.0 mm 0.00 in0.0 mm
07:34 AM 51.4°F10.8°C 37.7°F3.2°C 60% 3.0 mph SE4.8 kmh SE 11.0 mph17.7 kmh 30.24 in1024.0 mb 0.00 in0.0 mm 0.00 in0.0 mm 0.00 in0.0 mm
07:39 AM 52.0°F11.1°C 37.8°F3.2°C 59% 1.0 mph SE1.6 kmh SE 11.0 mph17.7 kmh 30.25 in1024.4 mb 0.00 in0.0 mm 0.00 in0.0 mm 0.00 in0.0 mm
07:44 AM 52.6°F11.4°C 37.9°F3.3°C 58% 6.0 mph SE9.7 kmh SE 11.0 mph17.7 kmh 30.25 in1024.4 mb 0.00 in0.0 mm 0.00 in0.0 mm 0.00 in0.0 mm
07:49 AM 53.1°F11.7°C 37.9°F3.3°C 57% 3.0 mph SE4.8 kmh SE 10.0 mph16.1 kmh 30.25 in1024.4 mb 0.00 in0.0 mm 0.00 in0.0 mm 0.00 in0.0 mm
07:54 AM 53.4°F11.9°C 38.7°F3.7°C 58% 5.0 mph SSE8.0 kmh SSE 10.0 mph16.1 kmh 30.25 in1024.4 mb 0.00 in0.0 mm 0.00 in0.0 mm 0.00 in0.0 mm
07:59 AM 53.7°F12.1°C 38.5°F3.6°C 57% 5.0 mph SSE8.0 kmh SSE 15.0 mph24.1 kmh 30.25 in1024.4 mb 0.00 in0.0 mm 0.00 in0.0 mm 0.00 in0.0 mm
08:04 AM 54.0°F12.2°C 38.8°F3.8°C 57% 7.0 mph SSE11.3 kmh SSE 15.0 mph24.1 kmh 30.25 in1024.4 mb 0.00 in0.0 mm 0.00 in0.0 mm 0.00 in0.0 mm
08:09 AM 54.6°F12.6°C 38.8°F3.8°C 56% 6.0 mph SE9.7 kmh SE 15.0 mph24.1 kmh 30.25 in1024.4 mb 0.00 in0.0 mm 0.00 in0.0 mm 0.00 in0.0 mm
08:14 AM 54.9°F12.7°C 39.1°F3.9°C 56% 2.0 mph SE3.2 kmh SE 15.0 mph24.1 kmh 30.25 in1024.4 mb 0.00 in0.0 mm 0.00 in0.0 mm 0.00 in0.0 mm
08:19 AM 55.3°F12.9°C 39.5°F4.2°C 56% 4.0 mph SE6.4 kmh SE 13.0 mph20.9 kmh 30.25 in1024.4 mb 0.00 in0.0 mm 0.00 in0.0 mm 0.00 in0.0 mm
08:24 AM 55.7°F13.2°C 39.4°F4.1°C 55% 4.0 mph S6.4 kmh S 13.0 mph20.9 kmh 30.25 in1024.4 mb 0.00 in0.0 mm 0.00 in0.0 mm 0.00 in0.0 mm
08:29 AM 55.9°F13.3°C 39.6°F4.2°C 55% 4.0 mph SE6.4 kmh SE 11.0 mph17.7 kmh 30.25 in1024.4 mb 0.00 in0.0 mm 0.00 in0.0 mm 0.00 in0.0 mm
08:34 AM 56.3°F13.5°C 39.5°F4.2°C 54% 5.0 mph S8.0 kmh S 12.0 mph19.3 kmh 30.25 in1024.4 mb 0.00 in0.0 mm 0.00 in0.0 mm 0.00 in0.0 mm
08:39 AM 56.6°F13.7°C 39.7°F4.3°C 54% 4.0 mph ESE6.4 kmh ESE 13.0 mph20.9 kmh 30.25 in1024.4 mb 0.00 in0.0 mm 0.00 in0.0 mm 0.00 in0.0 mm
08:44 AM 56.6°F13.7°C 39.7°F4.3°C 54% 4.0 mph SE6.4 kmh SE 13.0 mph20.9 kmh 30.25 in1024.4 mb 0.00 in0.0 mm 0.00 in0.0 mm 0.00 in0.0 mm
08:49 AM 56.7°F13.7°C 39.8°F4.3°C 54% 5.0 mph SE8.0 kmh SE 13.0 mph20.9 kmh 30.25 in1024.4 mb 0.00 in0.0 mm 0.00 in0.0 mm 0.00 in0.0 mm
08:54 AM 57.3°F14.1°C 40.4°F4.7°C 54% 9.0 mph SE14.5 kmh SE 13.0 mph20.9 kmh 30.25 in1024.4 mb 0.00 in0.0 mm 0.00 in0.0 mm 0.00 in0.0 mm
08:59 AM 57.8°F14.3°C 40.3°F4.6°C 53% 6.0 mph SE9.7 kmh SE 13.0 mph20.9 kmh 30.25 in1024.4 mb 0.00 in0.0 mm 0.00 in0.0 mm 0.00 in0.0 mm
09:04 AM 58.4°F14.7°C 41.4°F5.2°C 54% 10.0 mph SSE16.1 kmh SSE 14.0 mph22.5 kmh 30.25 in1024.4 mb 0.00 in0.0 mm 0.00 in0.0 mm 0.00 in0.0 mm
09:09 AM 58.8°F14.9°C 41.3°F5.2°C 53% 4.0 mph SE6.4 kmh SE 14.0 mph22.5 kmh 30.25 in1024.4 mb 0.00 in0.0 mm 0.00 in0.0 mm 0.00 in0.0 mm
09:14 AM 58.9°F14.9°C 41.4°F5.2°C 53% 6.0 mph SE9.7 kmh SE 14.0 mph22.5 kmh 30.25 in1024.4 mb 0.00 in0.0 mm 0.00 in0.0 mm 0.00 in0.0 mm
09:19 AM 59.2°F15.1°C 41.6°F5.3°C 53% 14.0 mph SE22.5 kmh SE 14.0 mph22.5 kmh 30.25 in1024.4 mb 0.00 in0.0 mm 0.00 in0.0 mm 0.00 in0.0 mm
09:24 AM 59.5°F15.3°C 41.4°F5.2°C 52% 4.0 mph SSE6.4 kmh SSE 14.0 mph22.5 kmh 30.25 in1024.4 mb 0.00 in0.0 mm 0.00 in0.0 mm 0.00 in0.0 mm
09:29 AM 60.1°F15.6°C 41.9°F5.5°C 52% 6.0 mph SE9.7 kmh SE 14.0 mph22.5 kmh 30.25 in1024.4 mb 0.00 in0.0 mm 0.00 in0.0 mm 0.00 in0.0 mm
09:34 AM 60.4°F15.8°C 41.7°F5.4°C 51% 13.0 mph SSE20.9 kmh SSE 14.0 mph22.5 kmh 30.25 in1024.4 mb 0.00 in0.0 mm 0.00 in0.0 mm 0.00 in0.0 mm
09:39 AM 60.9°F16.1°C 42.2°F5.7°C 51% 8.0 mph SE12.9 kmh SE 14.0 mph22.5 kmh 30.25 in1024.4 mb 0.00 in0.0 mm 0.00 in0.0 mm 0.00 in0.0 mm
09:44 AM 62.0°F16.7°C 43.2°F6.2°C 51% 8.0 mph SSE12.9 kmh SSE 13.0 mph20.9 kmh 30.25 in1024.4 mb 0.00 in0.0 mm 0.00 in0.0 mm 0.00 in0.0 mm
09:49 AM 62.3°F16.8°C 42.9°F6.1°C 50% 2.0 mph SE3.2 kmh SE 13.0 mph20.9 kmh 30.24 in1024.0 mb 0.00 in0.0 mm 0.00 in0.0 mm 0.00 in0.0 mm
09:54 AM 62.6°F17.0°C 43.2°F6.2°C 50% 9.0 mph SE14.5 kmh SE 11.0 mph17.7 kmh 30.24 in1024.0 mb 0.00 in0.0 mm 0.00 in0.0 mm 0.00 in0.0 mm
09:59 AM 63.1°F17.3°C 43.6°F6.4°C 50% 6.0 mph S9.7 kmh S 11.0 mph17.7 kmh 30.24 in1024.0 mb 0.00 in0.0 mm 0.00 in0.0 mm 0.00 in0.0 mm
10:04 AM 63.7°F17.6°C 44.7°F7.1°C 51% 6.0 mph SSE9.7 kmh SSE 11.0 mph17.7 kmh 30.24 in1024.0 mb 0.00 in0.0 mm 0.00 in0.0 mm 0.00 in0.0 mm
10:09 AM 63.9°F17.7°C 43.3°F6.3°C 48% 5.0 mph ESE8.0 kmh ESE 11.0 mph17.7 kmh 30.24 in1024.0 mb 0.00 in0.0 mm 0.00 in0.0 mm 0.00 in0.0 mm
10:14 AM 63.4°F17.4°C 42.8°F6.0°C 48% 5.0 mph ESE8.0 kmh ESE 11.0 mph17.7 kmh 30.24 in1024.0 mb 0.00 in0.0 mm 0.00 in0.0 mm 0.00 in0.0 mm
10:19 AM 63.6°F17.6°C 44.1°F6.7°C 50% 3.0 mph SE4.8 kmh SE 11.0 mph17.7 kmh 30.23 in1023.7 mb 0.00 in0.0 mm 0.00 in0.0 mm 0.00 in0.0 mm
10:24 AM 64.2°F17.9°C 44.1°F6.7°C 49% Calm Calm -- 30.23 in1023.7 mb 0.00 in0.0 mm 0.00 in0.0 mm 0.00 in0.0 mm
10:29 AM 64.6°F18.1°C 43.9°F6.6°C 48% Calm Calm 10.0 mph16.1 kmh 30.23 in1023.7 mb 0.00 in0.0 mm 0.00 in0.0 mm 0.00 in0.0 mm
10:34 AM 64.6°F18.1°C 43.9°F6.6°C 48% 5.0 mph SE8.0 kmh SE 10.0 mph16.1 kmh 30.23 in1023.7 mb 0.00 in0.0 mm 0.00 in0.0 mm 0.00 in0.0 mm
10:39 AM 64.9°F18.3°C 44.7°F7.1°C 49% 3.0 mph SE4.8 kmh SE 10.0 mph16.1 kmh 30.23 in1023.7 mb 0.00 in0.0 mm 0.00 in0.0 mm 0.00 in0.0 mm
10:44 AM 65.3°F18.5°C 44.0°F6.7°C 47% 4.0 mph SE6.4 kmh SE 10.0 mph16.1 kmh 30.23 in1023.7 mb 0.00 in0.0 mm 0.00 in0.0 mm 0.00 in0.0 mm
10:49 AM 65.8°F18.8°C 44.4°F6.9°C 47% 4.0 mph SE6.4 kmh SE 10.0 mph16.1 kmh 30.22 in1023.4 mb 0.00 in0.0 mm 0.00 in0.0 mm 0.00 in0.0 mm
10:54 AM 66.5°F19.2°C 44.5°F6.9°C 46% Calm Calm 11.0 mph17.7 kmh 30.22 in1023.4 mb 0.00 in0.0 mm 0.00 in0.0 mm 0.00 in0.0 mm
10:59 AM 66.1°F18.9°C 44.1°F6.7°C 46% 4.0 mph 6.4 kmh 11.0 mph17.7 kmh 30.22 in1023.4 mb 0.00 in0.0 mm 0.00 in0.0 mm 0.00 in0.0 mm
11:04 AM 65.7°F18.7°C 43.7°F6.5°C 46% 5.0 mph ESE8.0 kmh ESE 11.0 mph17.7 kmh 30.22 in1023.4 mb 0.00 in0.0 mm 0.00 in0.0 mm 0.00 in0.0 mm
11:09 AM 66.1°F18.9°C 44.1°F6.7°C 46% 6.0 mph SE9.7 kmh SE 11.0 mph17.7 kmh 30.22 in1023.4 mb 0.00 in0.0 mm 0.00 in0.0 mm 0.00 in0.0 mm
11:14 AM 66.6°F19.2°C 44.5°F6.9°C 46% 3.0 mph SE4.8 kmh SE 11.0 mph17.7 kmh 30.22 in1023.4 mb 0.00 in0.0 mm 0.00 in0.0 mm 0.00 in0.0 mm
11:19 AM 67.6°F19.8°C 46.6°F8.1°C 48% 3.0 mph ESE4.8 kmh ESE 11.0 mph17.7 kmh 30.21 in1023.0 mb 0.00 in0.0 mm 0.00 in0.0 mm 0.00 in0.0 mm
11:24 AM 67.3°F19.6°C 45.2°F7.3°C 46% 3.0 mph SE4.8 kmh SE 11.0 mph17.7 kmh 30.21 in1023.0 mb 0.00 in0.0 mm 0.00 in0.0 mm 0.00 in0.0 mm
11:29 AM 67.5°F19.7°C 44.7°F7.1°C 45% 3.0 mph ESE4.8 kmh ESE 11.0 mph17.7 kmh 30.21 in1023.0 mb 0.00 in0.0 mm 0.00 in0.0 mm 0.00 in0.0 mm
11:34 AM 67.7°F19.8°C 44.9°F7.2°C 45% 5.0 mph S8.0 kmh S 9.0 mph14.5 kmh 30.21 in1023.0 mb 0.00 in0.0 mm 0.00 in0.0 mm 0.00 in0.0 mm
11:39 AM 68.4°F20.2°C 46.2°F7.9°C 46% 1.0 mph S1.6 kmh S 9.0 mph14.5 kmh 30.21 in1023.0 mb 0.00 in0.0 mm 0.00 in0.0 mm 0.00 in0.0 mm
11:44 AM 68.5°F20.3°C 45.0°F7.2°C 44% 2.0 mph SE3.2 kmh SE 12.0 mph19.3 kmh 30.21 in1023.0 mb 0.00 in0.0 mm 0.00 in0.0 mm 0.00 in0.0 mm
11:49 AM 68.7°F20.4°C 45.8°F7.7°C 45% 1.0 mph S1.6 kmh S 12.0 mph19.3 kmh 30.21 in1023.0 mb 0.00 in0.0 mm 0.00 in0.0 mm 0.00 in0.0 mm
11:54 AM 68.2°F20.1°C 46.0°F7.8°C 46% 5.0 mph S8.0 kmh S 12.0 mph19.3 kmh 30.21 in1023.0 mb 0.00 in0.0 mm 0.00 in0.0 mm 0.00 in0.0 mm
11:59 AM 68.1°F20.1°C 45.3°F7.4°C 45% 2.0 mph S3.2 kmh S 12.0 mph19.3 kmh 30.21 in1023.0 mb 0.00 in0.0 mm 0.00 in0.0 mm 0.00 in0.0 mm
12:04 PM 68.0°F20.0°C 45.2°F7.3°C 45% 6.0 mph S9.7 kmh S 13.0 mph20.9 kmh 30.20 in1022.7 mb 0.00 in0.0 mm 0.00 in0.0 mm 0.00 in0.0 mm
12:09 PM 68.6°F20.3°C 46.3°F7.9°C 46% Calm Calm 15.0 mph24.1 kmh 30.20 in1022.7 mb 0.00 in0.0 mm 0.00 in0.0 mm 0.00 in0.0 mm
12:14 PM 69.7°F20.9°C 47.3°F8.5°C 46% 4.0 mph SE6.4 kmh SE 15.0 mph24.1 kmh 30.20 in1022.7 mb 0.00 in0.0 mm 0.00 in0.0 mm 0.00 in0.0 mm
12:19 PM 69.3°F20.7°C 45.1°F7.3°C 43% 6.0 mph S9.7 kmh S 15.0 mph24.1 kmh 30.20 in1022.7 mb 0.00 in0.0 mm 0.00 in0.0 mm 0.00 in0.0 mm
12:24 PM 69.0°F20.6°C 46.1°F7.8°C 45% Calm Calm 15.0 mph24.1 kmh 30.20 in1022.7 mb 0.00 in0.0 mm 0.00 in0.0 mm 0.00 in0.0 mm
12:29 PM 68.9°F20.5°C 45.4°F7.4°C 44% 1.0 mph SSW1.6 kmh SSW 10.0 mph16.1 kmh 30.20 in1022.7 mb 0.00 in0.0 mm 0.00 in0.0 mm 0.00 in0.0 mm
12:34 PM 68.6°F20.3°C 45.7°F7.6°C 45% 6.0 mph S9.7 kmh S 10.0 mph16.1 kmh 30.20 in1022.7 mb 0.00 in0.0 mm 0.00 in0.0 mm 0.00 in0.0 mm
12:39 PM 69.2°F20.7°C 44.4°F6.9°C 42% Calm Calm 8.0 mph12.9 kmh 30.19 in1022.4 mb 0.00 in0.0 mm 0.00 in0.0 mm 0.00 in0.0 mm
12:44 PM 70.9°F21.6°C 46.5°F8.1°C 43% 2.0 mph SE3.2 kmh SE 10.0 mph16.1 kmh 30.19 in1022.4 mb 0.00 in0.0 mm 0.00 in0.0 mm 0.00 in0.0 mm
12:49 PM 71.8°F22.1°C 44.6°F7.0°C 39% Calm Calm 10.0 mph16.1 kmh 30.19 in1022.4 mb 0.00 in0.0 mm 0.00 in0.0 mm 0.00 in0.0 mm
12:54 PM 71.9°F22.2°C 44.0°F6.7°C 38% 2.0 mph SSE3.2 kmh SSE 10.0 mph16.1 kmh 30.19 in1022.4 mb 0.00 in0.0 mm 0.00 in0.0 mm 0.00 in0.0 mm
12:59 PM 71.7°F22.1°C 44.6°F7.0°C 39% Calm Calm 10.0 mph16.1 kmh 30.19 in1022.4 mb 0.00 in0.0 mm 0.00 in0.0 mm 0.00 in0.0 mm
01:04 PM 71.9°F22.2°C 44.0°F6.7°C 38% 12.0 mph ESE19.3 kmh ESE 12.0 mph19.3 kmh 30.18 in1022.0 mb 0.00 in0.0 mm 0.00 in0.0 mm 0.00 in0.0 mm
01:09 PM 72.3°F22.4°C 45.1°F7.3°C 39% 1.0 mph SE1.6 kmh SE 12.0 mph19.3 kmh 30.18 in1022.0 mb 0.00 in0.0 mm 0.00 in0.0 mm 0.00 in0.0 mm
01:14 PM 72.2°F22.3°C 45.0°F7.2°C 39% 9.0 mph ESE14.5 kmh ESE 12.0 mph19.3 kmh 30.17 in1021.7 mb 0.00 in0.0 mm 0.00 in0.0 mm 0.00 in0.0 mm
01:19 PM 72.8°F22.7°C 46.9°F8.3°C 41% 4.0 mph 6.4 kmh 12.0 mph19.3 kmh 30.17 in1021.7 mb 0.00 in0.0 mm 0.00 in0.0 mm 0.00 in0.0 mm
01:24 PM 71.7°F22.1°C 42.3°F5.7°C 36% Calm Calm 3.0 mph4.8 kmh 30.17 in1021.7 mb 0.00 in0.0 mm 0.00 in0.0 mm 0.00 in0.0 mm
01:29 PM 72.1°F22.3°C 44.2°F6.8°C 38% 10.0 mph E16.1 kmh E 11.0 mph17.7 kmh 30.17 in1021.7 mb 0.00 in0.0 mm 0.00 in0.0 mm 0.00 in0.0 mm
01:34 PM 72.4°F22.4°C 44.5°F6.9°C 38% 2.0 mph E3.2 kmh E 14.0 mph22.5 kmh 30.17 in1021.7 mb 0.00 in0.0 mm 0.00 in0.0 mm 0.00 in0.0 mm
01:39 PM 73.3°F22.9°C 45.2°F7.3°C 38% Calm Calm 14.0 mph22.5 kmh 30.16 in1021.3 mb 0.00 in0.0 mm 0.00 in0.0 mm 0.00 in0.0 mm
01:44 PM 73.5°F23.1°C 44.7°F7.1°C 37% 3.0 mph ESE4.8 kmh ESE 14.0 mph22.5 kmh 30.16 in1021.3 mb 0.00 in0.0 mm 0.00 in0.0 mm 0.00 in0.0 mm
01:49 PM 73.4°F23.0°C 44.6°F7.0°C 37% 4.0 mph ESE6.4 kmh ESE 14.0 mph22.5 kmh 30.16 in1021.3 mb 0.00 in0.0 mm 0.00 in0.0 mm 0.00 in0.0 mm
01:54 PM 74.4°F23.6°C 46.9°F8.3°C 39% 4.0 mph ESE6.4 kmh ESE 11.0 mph17.7 kmh 30.16 in1021.3 mb 0.00 in0.0 mm 0.00 in0.0 mm 0.00 in0.0 mm
01:59 PM 74.0°F23.3°C 44.4°F6.9°C 36% 8.0 mph E12.9 kmh E 11.0 mph17.7 kmh 30.16 in1021.3 mb 0.00 in0.0 mm 0.00 in0.0 mm 0.00 in0.0 mm
02:04 PM 74.2°F23.4°C 44.5°F6.9°C 36% 3.0 mph E4.8 kmh E 14.0 mph22.5 kmh 30.16 in1021.3 mb 0.00 in0.0 mm 0.00 in0.0 mm 0.00 in0.0 mm
02:09 PM 74.7°F23.7°C 44.2°F6.8°C 35% Calm Calm 14.0 mph22.5 kmh 30.16 in1021.3 mb 0.00 in0.0 mm 0.00 in0.0 mm 0.00 in0.0 mm
02:14 PM 73.8°F23.2°C 44.2°F6.8°C 36% 3.0 mph E4.8 kmh E 14.0 mph22.5 kmh 30.16 in1021.3 mb 0.00 in0.0 mm 0.00 in0.0 mm 0.00 in0.0 mm
02:19 PM 74.4°F23.6°C 44.7°F7.1°C 36% 8.0 mph E12.9 kmh E 14.0 mph22.5 kmh 30.16 in1021.3 mb 0.00 in0.0 mm 0.00 in0.0 mm 0.00 in0.0 mm
02:24 PM 74.4°F23.6°C 43.9°F6.6°C 35% 5.0 mph SSE8.0 kmh SSE 13.0 mph20.9 kmh 30.16 in1021.3 mb 0.00 in0.0 mm 0.00 in0.0 mm 0.00 in0.0 mm
02:29 PM 74.3°F23.5°C 45.4°F7.4°C 37% 3.0 mph ESE4.8 kmh ESE 13.0 mph20.9 kmh 30.16 in1021.3 mb 0.00 in0.0 mm 0.00 in0.0 mm 0.00 in0.0 mm
02:34 PM 74.1°F23.4°C 42.0°F5.6°C 33% 2.0 mph SSE3.2 kmh SSE 11.0 mph17.7 kmh 30.16 in1021.3 mb 0.00 in0.0 mm 0.00 in0.0 mm 0.00 in0.0 mm
02:39 PM 73.4°F23.0°C 43.1°F6.2°C 35% 6.0 mph E9.7 kmh E 11.0 mph17.7 kmh 30.15 in1021.0 mb 0.00 in0.0 mm 0.00 in0.0 mm 0.00 in0.0 mm
02:44 PM 73.0°F22.8°C 42.7°F5.9°C 35% 7.0 mph SE11.3 kmh SE 11.0 mph17.7 kmh 30.15 in1021.0 mb 0.00 in0.0 mm 0.00 in0.0 mm 0.00 in0.0 mm
02:49 PM 73.0°F22.8°C 42.7°F5.9°C 35% 2.0 mph SSW3.2 kmh SSW 11.0 mph17.7 kmh 30.15 in1021.0 mb 0.00 in0.0 mm 0.00 in0.0 mm 0.00 in0.0 mm
02:54 PM 72.8°F22.7°C 44.8°F7.1°C 38% 8.0 mph 12.9 kmh 11.0 mph17.7 kmh 30.14 in1020.7 mb 0.00 in0.0 mm 0.00 in0.0 mm 0.00 in0.0 mm
02:59 PM 73.3°F22.9°C 43.7°F6.5°C 36% 4.0 mph ESE6.4 kmh ESE 11.0 mph17.7 kmh 30.14 in1020.7 mb 0.00 in0.0 mm 0.00 in0.0 mm 0.00 in0.0 mm
03:04 PM 73.7°F23.2°C 41.7°F5.4°C 33% 13.0 mph E20.9 kmh E 13.0 mph20.9 kmh 30.14 in1020.7 mb 0.00 in0.0 mm 0.00 in0.0 mm 0.00 in0.0 mm
03:09 PM 74.4°F23.6°C 43.1°F6.2°C 34% 3.0 mph SE4.8 kmh SE 13.0 mph20.9 kmh 30.14 in1020.7 mb 0.00 in0.0 mm 0.00 in0.0 mm 0.00 in0.0 mm
03:14 PM 74.5°F23.6°C 43.2°F6.2°C 34% Calm Calm 13.0 mph20.9 kmh 30.14 in1020.7 mb 0.00 in0.0 mm 0.00 in0.0 mm 0.00 in0.0 mm
03:19 PM 74.9°F23.8°C 41.9°F5.5°C 32% 7.0 mph ESE11.3 kmh ESE 16.0 mph25.7 kmh 30.14 in1020.7 mb 0.00 in0.0 mm 0.00 in0.0 mm 0.00 in0.0 mm
03:24 PM 73.8°F23.2°C 41.8°F5.4°C 33% 4.0 mph ESE6.4 kmh ESE 16.0 mph25.7 kmh 30.14 in1020.7 mb 0.00 in0.0 mm 0.00 in0.0 mm 0.00 in0.0 mm
03:29 PM 74.3°F23.5°C 43.8°F6.6°C 35% 7.0 mph SE11.3 kmh SE 16.0 mph25.7 kmh 30.14 in1020.7 mb 0.00 in0.0 mm 0.00 in0.0 mm 0.00 in0.0 mm
03:34 PM 74.6°F23.7°C 41.6°F5.3°C 32% 1.0 mph E1.6 kmh E 16.0 mph25.7 kmh 30.13 in1020.3 mb 0.00 in0.0 mm 0.00 in0.0 mm 0.00 in0.0 mm
03:39 PM 75.4°F24.1°C 43.2°F6.2°C 33% 10.0 mph SE16.1 kmh SE 14.0 mph22.5 kmh 30.13 in1020.3 mb 0.00 in0.0 mm 0.00 in0.0 mm 0.00 in0.0 mm
03:44 PM 75.3°F24.1°C 43.9°F6.6°C 34% 4.0 mph SE6.4 kmh SE 20.0 mph32.2 kmh 30.13 in1020.3 mb 0.00 in0.0 mm 0.00 in0.0 mm 0.00 in0.0 mm
03:49 PM 74.7°F23.7°C 42.6°F5.9°C 33% 1.0 mph SE1.6 kmh SE 20.0 mph32.2 kmh 30.13 in1020.3 mb 0.00 in0.0 mm 0.00 in0.0 mm 0.00 in0.0 mm
03:54 PM 73.9°F23.3°C 41.9°F5.5°C 33% 1.0 mph ESE1.6 kmh ESE 20.0 mph32.2 kmh 30.13 in1020.3 mb 0.00 in0.0 mm 0.00 in0.0 mm 0.00 in0.0 mm
03:59 PM 74.1°F23.4°C 42.9°F6.1°C 34% 2.0 mph SE3.2 kmh SE 20.0 mph32.2 kmh 30.13 in1020.3 mb 0.00 in0.0 mm 0.00 in0.0 mm 0.00 in0.0 mm
04:04 PM 73.9°F23.3°C 41.9°F5.5°C 33% 1.0 mph SE1.6 kmh SE 10.0 mph16.1 kmh 30.13 in1020.3 mb 0.00 in0.0 mm 0.00 in0.0 mm 0.00 in0.0 mm
04:09 PM 73.3°F22.9°C 40.5°F4.7°C 32% 5.0 mph S8.0 kmh S 10.0 mph16.1 kmh 30.13 in1020.3 mb 0.00 in0.0 mm 0.00 in0.0 mm 0.00 in0.0 mm
04:14 PM 72.7°F22.6°C 40.8°F4.9°C 33% 3.0 mph SSE4.8 kmh SSE 13.0 mph20.9 kmh 30.13 in1020.3 mb 0.00 in0.0 mm 0.00 in0.0 mm 0.00 in0.0 mm
04:19 PM 73.0°F22.8°C 42.7°F5.9°C 35% 2.0 mph E3.2 kmh E 13.0 mph20.9 kmh 30.12 in1020.0 mb 0.00 in0.0 mm 0.00 in0.0 mm 0.00 in0.0 mm
04:24 PM 73.1°F22.8°C 40.3°F4.6°C 32% Calm Calm 13.0 mph20.9 kmh 30.12 in1020.0 mb 0.00 in0.0 mm 0.00 in0.0 mm 0.00 in0.0 mm
04:29 PM 73.1°F22.8°C 42.0°F5.6°C 34% 1.0 mph SSW1.6 kmh SSW 13.0 mph20.9 kmh 30.12 in1020.0 mb 0.00 in0.0 mm 0.00 in0.0 mm 0.00 in0.0 mm
04:34 PM 73.2°F22.9°C 41.3°F5.2°C 33% 1.0 mph S1.6 kmh S 9.0 mph14.5 kmh 30.12 in1020.0 mb 0.00 in0.0 mm 0.00 in0.0 mm 0.00 in0.0 mm
04:39 PM 72.4°F22.4°C 41.4°F5.2°C 34% 2.0 mph SE3.2 kmh SE 17.0 mph27.4 kmh 30.12 in1020.0 mb 0.00 in0.0 mm 0.00 in0.0 mm 0.00 in0.0 mm
04:44 PM 72.2°F22.3°C 41.2°F5.1°C 34% 3.0 mph S4.8 kmh S 18.0 mph29.0 kmh 30.12 in1020.0 mb 0.00 in0.0 mm 0.00 in0.0 mm 0.00 in0.0 mm
04:49 PM 71.9°F22.2°C 41.7°F5.4°C 35% 7.0 mph SSW11.3 kmh SSW 18.0 mph29.0 kmh 30.12 in1020.0 mb 0.00 in0.0 mm 0.00 in0.0 mm 0.00 in0.0 mm
04:54 PM 71.6°F22.0°C 41.5°F5.3°C 35% 16.0 mph S25.7 kmh S 18.0 mph29.0 kmh 30.12 in1020.0 mb 0.00 in0.0 mm 0.00 in0.0 mm 0.00 in0.0 mm
04:59 PM 71.3°F21.8°C 42.0°F5.6°C 36% 9.0 mph S14.5 kmh S 18.0 mph29.0 kmh 30.12 in1020.0 mb 0.00 in0.0 mm 0.00 in0.0 mm 0.00 in0.0 mm
05:04 PM 71.0°F21.7°C 41.0°F5.0°C 35% 6.0 mph S9.7 kmh S 16.0 mph25.7 kmh 30.12 in1020.0 mb 0.00 in0.0 mm 0.00 in0.0 mm 0.00 in0.0 mm
05:09 PM 70.9°F21.6°C 41.6°F5.3°C 36% Calm Calm 16.0 mph25.7 kmh 30.12 in1020.0 mb 0.00 in0.0 mm 0.00 in0.0 mm 0.00 in0.0 mm
05:14 PM 70.6°F21.4°C 41.4°F5.2°C 36% 9.0 mph S14.5 kmh S 16.0 mph25.7 kmh 30.12 in1020.0 mb 0.00 in0.0 mm 0.00 in0.0 mm 0.00 in0.0 mm
05:19 PM 70.4°F21.3°C 41.2°F5.1°C 36% 5.0 mph S8.0 kmh S 16.0 mph25.7 kmh 30.12 in1020.0 mb 0.00 in0.0 mm 0.00 in0.0 mm 0.00 in0.0 mm
05:24 PM 70.3°F21.3°C 41.1°F5.1°C 36% 9.0 mph S14.5 kmh S 15.0 mph24.1 kmh 30.12 in1020.0 mb 0.00 in0.0 mm 0.00 in0.0 mm 0.00 in0.0 mm
05:29 PM 70.3°F21.3°C 41.1°F5.1°C 36% 8.0 mph SSW12.9 kmh SSW 15.0 mph24.1 kmh 30.13 in1020.3 mb 0.00 in0.0 mm 0.00 in0.0 mm 0.00 in0.0 mm
05:34 PM 70.2°F21.2°C 41.0°F5.0°C 36% 8.0 mph S12.9 kmh S 15.0 mph24.1 kmh 30.13 in1020.3 mb 0.00 in0.0 mm 0.00 in0.0 mm 0.00 in0.0 mm
05:39 PM 70.3°F21.3°C 41.9°F5.5°C 37% 11.0 mph S17.7 kmh S 15.0 mph24.1 kmh 30.13 in1020.3 mb 0.00 in0.0 mm 0.00 in0.0 mm 0.00 in0.0 mm